| time (UTC) | temp F | wind direction | speed MPH | gust MPH | rain 1hr in | rain 24hr in | rain mn in | humidity % | barometer mb |
| 20260905195542 | 44 | 265 | 6.0 | 10.0 | 0.00 | 0.00 | 0.00 | 81 | |
| 20260905194530 | 44 | 270 | 4.0 | 8.0 | 0.00 | 0.00 | 0.00 | 80 | |
| 20260905193521 | 44 | 264 | 3.0 | 7.0 | 0.00 | 0.00 | 0.00 | 80 | |
| 20260905192550 | 44 | 269 | 4.0 | 8.0 | 0.00 | 0.00 | 0.00 | 79 | |
| 20260905191522 | 44 | 273 | 3.0 | 8.0 | 0.00 | 0.00 | 0.00 | 80 | |
| 20260905190530 | 45 | 273 | 4.0 | 9.0 | 0.00 | 0.00 | 0.00 | 78 | |
| 20260905185522 | 45 | 271 | 7.0 | 15.0 | 0.00 | 0.00 | 0.00 | 77 | |
| 20260905184530 | 45 | 254 | 7.0 | 11.0 | 0.00 | 0.00 | 0.00 | 77 | |
| 20260905183542 | 45 | 264 | 7.0 | 13.0 | 0.00 | 0.00 | 0.00 | 77 | |
| 20260905182530 | 45 | 277 | 5.0 | 11.0 | 0.00 | 0.00 | 0.00 | 79 | |
| 20260905181522 | 44 | 278 | 5.0 | 11.0 | 0.00 | 0.00 | 0.00 | 79 | |
| 20260905180530 | 44 | 284 | 4.0 | 10.0 | 0.00 | 0.00 | 0.00 | 79 | |
| 20260905175522 | 45 | 281 | 2.0 | 5.0 | 0.00 | 0.00 | 0.00 | 79 | |
| 20260905174530 | 45 | 273 | 3.0 | 6.0 | 0.00 | 0.00 | 0.00 | 78 | |
| 20260905173522 | 45 | 255 | 6.0 | 11.0 | 0.00 | 0.00 | 0.00 | 77 | |
| 20260905172550 | 45 | 265 | 12.0 | 21.0 | 0.00 | 0.00 | 0.00 | 77 | |
| 20260905171522 | 45 | 268 | 11.0 | 25.0 | 0.00 | 0.00 | 0.00 | 78 | |
| 20260905170531 | 45 | 262 | 7.0 | 15.0 | 0.00 | 0.00 | 0.00 | 79 | |
| 20260905165543 | 46 | 275 | 7.0 | 13.0 | 0.00 | 0.00 | 0.00 | 78 | |
| 20260905164530 | 45 | 261 | 8.0 | 16.0 | 0.00 | 0.00 | 0.00 | 78 | |
| 20260905163522 | 45 | 267 | 8.0 | 16.0 | 0.00 | 0.00 | 0.00 | 78 | |
| 20260905162550 | 45 | 263 | 10.0 | 17.0 | 0.00 | 0.00 | 0.00 | 79 | |
| 20260905161522 | 45 | 261 | 9.0 | 16.0 | 0.00 | 0.00 | 0.00 | 79 | |
| 20260905160529 | 46 | 271 | 8.0 | 15.0 | 0.00 | 0.00 | 0.00 | 79 | |
| 20260905155522 | 46 | 263 | 4.0 | 9.0 | 0.00 | 0.00 | 0.00 | 79 | |
| 20260905154610 | 46 | 253 | 5.0 | 15.0 | 0.00 | 0.00 | 0.00 | 79 | |
| 20260905153522 | 45 | 269 | 7.0 | 14.0 | 0.00 | 0.00 | 0.00 | 81 | |
| 20260905152530 | 45 | 259 | 5.0 | 11.0 | 0.00 | 0.00 | 0.00 | 81 | |
| 20260905151522 | 45 | 264 | 6.0 | 11.0 | 0.00 | 0.00 | 0.00 | 83 | |
| 20260905150530 | 45 | 264 | 7.0 | 13.0 | 0.00 | 0.00 | 0.00 | 85 | |
| 20260905145522 | 45 | 265 | 8.0 | 15.0 | 0.00 | 0.00 | 0.00 | 86 | |
| 20260905144550 | 46 | 264 | 8.0 | 17.0 | 0.00 | 0.00 | 0.00 | 84 | |
| 20260905143522 | 47 | 253 | 5.0 | 10.0 | 0.00 | 0.00 | 0.00 | 79 | |
| 20260905142530 | 48 | 262 | 7.0 | 15.0 | 0.00 | 0.00 | 0.00 | 74 | |
| 20260905141542 | 47 | 267 | 6.0 | 15.0 | 0.00 | 0.00 | 0.00 | 76 | |
| 20260905140530 | 47 | 276 | 6.0 | 15.0 | 0.00 | 0.00 | 0.00 | 78 | |
| 20260905135522 | 47 | 270 | 4.0 | 10.0 | 0.00 | 0.00 | 0.00 | 77 | |
| 20260905134530 | 48 | 276 | 6.0 | 14.0 | 0.00 | 0.00 | 0.00 | 76 | |
| 20260905133522 | 48 | 281 | 5.0 | 10.0 | 0.00 | 0.00 | 0.00 | 76 | |
| 20260905132530 | 48 | 262 | 4.0 | 13.0 | 0.00 | 0.00 | 0.00 | 77 | |
| 20260905131522 | 49 | 260 | 5.0 | 13.0 | 0.00 | 0.00 | 0.00 | 76 | |
| 20260905130530 | 49 | 275 | 7.0 | 15.0 | 0.00 | 0.00 | 0.00 | 77 | |
| 20260905125542 | 49 | 256 | 7.0 | 14.0 | 0.00 | 0.00 | 0.00 | 75 | |
| 20260905124550 | 50 | 253 | 10.0 | 21.0 | 0.00 | 0.00 | 0.00 | 73 | |
| 20260905123522 | 50 | 264 | 13.0 | 25.0 | 0.00 | 0.00 | 0.00 | 70 | |
| 20260905122550 | 50 | 276 | 8.0 | 15.0 | 0.00 | 0.00 | 0.00 | 73 | |
| 20260905121522 | 50 | 274 | 6.0 | 11.0 | 0.00 | 0.00 | 0.00 | 72 | |
| 20260905120530 | 50 | 270 | 8.0 | 15.0 | 0.00 | 0.00 | 0.00 | 72 | |
| 20260905115522 | 50 | 275 | 6.0 | 14.0 | 0.00 | 0.00 | 0.00 | 72 | |
| 20260905114530 | 50 | 264 | 6.0 | 14.0 | 0.00 | 0.00 | 0.00 | 71 | |
| 20260905113542 | 51 | 267 | 8.0 | 15.0 | 0.00 | 0.00 | 0.00 | 71 | |
| 20260905112530 | 51 | 267 | 7.0 | 13.0 | 0.00 | 0.00 | 0.00 | 70 | |
| 20260905111548 | 51 | 273 | 6.0 | 14.0 | 0.00 | 0.00 | 0.00 | 69 | |
| 20260905110530 | 52 | 284 | 8.0 | 18.0 | 0.00 | 0.00 | 0.00 | 67 | |
| 20260905105523 | 52 | 270 | 8.0 | 16.0 | 0.00 | 0.00 | 0.00 | 68 | |
| 20260905104530 | 52 | 268 | 8.0 | 18.0 | 0.00 | 0.00 | 0.00 | 68 | |
| 20260905103522 | 52 | 269 | 10.0 | 23.0 | 0.00 | 0.00 | 0.00 | 68 | |
| 20260905102530 | 52 | 265 | 9.0 | 19.0 | 0.00 | 0.00 | 0.00 | 71 | |
| 20260905101543 | 52 | 275 | 7.0 | 15.0 | 0.00 | 0.00 | 0.00 | 76 | |
| 20260905100530 | 52 | 274 | 7.0 | 16.0 | 0.00 | 0.00 | 0.00 | 79 | |
| 20260905095522 | 51 | 272 | 6.0 | 17.0 | 0.00 | 0.00 | 0.00 | 84 | |
| 20260905094530 | 51 | 268 | 4.0 | 9.0 | 0.00 | 0.00 | 0.00 | 89 | |
| 20260905093522 | 51 | 267 | 3.0 | 7.0 | 0.00 | 0.00 | 0.00 | 90 | |
| 20260905092530 | 51 | 280 | 4.0 | 8.0 | 0.00 | 0.00 | 0.00 | 89 | |
| 20260905091522 | 51 | 272 | 4.0 | 9.0 | 0.00 | 0.00 | 0.00 | 89 | |
| 20260905090550 | 51 | 271 | 5.0 | 10.0 | 0.00 | 0.00 | 0.00 | 89 | |
| 20260905085522 | 51 | 286 | 6.0 | 13.0 | 0.00 | 0.00 | 0.00 | 89 | |
| 20260905084530 | 51 | 293 | 7.0 | 15.0 | 0.00 | 0.00 | 0.00 | 89 | |
| 20260905083522 | 51 | 288 | 6.0 | 11.0 | 0.00 | 0.00 | 0.00 | 91 | |
| 20260905082531 | 51 | 286 | 4.0 | 9.0 | 0.00 | 0.00 | 0.00 | 93 | |
| 20260905081522 | 51 | 290 | 6.0 | 16.0 | 0.00 | 0.00 | 0.00 | 95 | |
| 20260905080610 | 51 | 284 | 6.0 | 14.0 | 0.00 | 0.00 | 0.00 | 96 | |
| 20260905075542 | 52 | 280 | 7.0 | 11.0 | 0.00 | 0.00 | 0.00 | 96 | |
| 20260905074531 | 52 | 282 | 6.0 | 14.0 | 0.00 | 0.00 | 0.00 | 96 | |
| 20260905073522 | 52 | 292 | 7.0 | 17.0 | 0.00 | 0.00 | 0.00 | 96 | |
| 20260905072550 | 52 | 272 | 8.0 | 16.0 | 0.00 | 0.00 | 0.00 | 96 | |
| 20260905071522 | 52 | 280 | 7.0 | 14.0 | 0.00 | 0.00 | 0.00 | 96 | |
| 20260905070530 | 52 | 275 | 9.0 | 22.0 | 0.00 | 0.00 | 0.00 | 95 | |
| 20260905065523 | 53 | 275 | 9.0 | 18.0 | 0.00 | 0.00 | 0.00 | 94 | |
| 20260905064530 | 53 | 280 | 7.0 | 14.0 | 0.00 | 0.00 | 0.00 | 93 | |
| 20260905063522 | 53 | 269 | 11.0 | 23.0 | 0.00 | 0.00 | 0.00 | 92 | |
| 20260905062530 | 53 | 286 | 9.0 | 16.0 | 0.00 | 0.00 | 0.00 | 92 | |
| 20260905061522 | 53 | 293 | 9.0 | 18.0 | 0.00 | 0.00 | 0.00 | 94 | |
| 20260905060532 | 53 | 285 | 6.0 | 18.0 | 0.00 | 0.00 | 0.00 | 95 | |
| 20260905055522 | 52 | 291 | 6.0 | 13.0 | 0.00 | 0.00 | 0.00 | 96 | |
| 20260905054530 | 52 | 304 | 6.0 | 13.0 | 0.00 | 0.00 | 0.00 | 96 | |
| 20260905053523 | 52 | 291 | 6.0 | 10.0 | 0.00 | 0.00 | 0.00 | 96 | |
| 20260905052530 | 52 | 287 | 6.0 | 11.0 | 0.00 | 0.00 | 0.00 | 97 | |
| 20260905051542 | 51 | 290 | 7.0 | 21.0 | 0.00 | 0.00 | 0.00 | 96 | |
| 20260905050530 | 51 | 276 | 4.0 | 9.0 | 0.00 | 0.00 | 0.00 | 96 | |
| 20260905045522 | 51 | 277 | 3.0 | 8.0 | 0.00 | 0.00 | 0.00 | 96 | |
| 20260905044530 | 52 | 279 | 4.0 | 9.0 | 0.00 | 0.00 | 0.00 | 95 | |
| 20260905043523 | 52 | 281 | 5.0 | 11.0 | 0.00 | 0.00 | 0.00 | 94 | |
| 20260905042530 | 52 | 280 | 5.0 | 11.0 | 0.00 | 0.00 | 0.00 | 93 | |
| 20260905041523 | 52 | 287 | 7.0 | 15.0 | 0.00 | 0.00 | 0.00 | 91 | |
| 20260905040550 | 53 | 279 | 7.0 | 13.0 | 0.00 | 0.00 | 0.00 | 90 | |
| 20260905035643 | 53 | 264 | 9.0 | 19.0 | 0.00 | 0.00 | 0.00 | 89 | |
| 20260905034530 | 54 | 263 | 8.0 | 15.0 | 0.00 | 0.00 | 0.00 | 87 | |
| 20260905033623 | 56 | 268 | 9.0 | 21.0 | 0.00 | 0.00 | 0.00 | 82 | |
| 20260905032531 | 56 | 287 | 7.0 | 18.0 | 0.00 | 0.00 | 0.00 | 82 | |
| 20260905031522 | 57 | 277 | 9.0 | 19.0 | 0.00 | 0.00 | 0.00 | 82 | |
| 20260905030531 | 58 | 287 | 9.0 | 21.0 | 0.00 | 0.00 | 0.00 | 79 | |
| 20260905025538 | 58 | 280 | 9.0 | 22.0 | 0.00 | 0.00 | 0.00 | 78 | |
| 20260905024531 | 58 | 278 | 11.0 | 26.0 | 0.00 | 0.00 | 0.00 | 76 | |
| 20260905023522 | 59 | 286 | 9.0 | 19.0 | 0.00 | 0.00 | 0.00 | 76 | |
| 20260905022530 | 59 | 281 | 10.0 | 22.0 | 0.00 | 0.00 | 0.00 | 76 | |
| 20260905021523 | 59 | 274 | 7.0 | 17.0 | 0.00 | 0.00 | 0.00 | 79 | |
| 20260905020530 | 59 | 285 | 9.0 | 24.0 | 0.00 | 0.00 | 0.00 | 79 | |
| 20260905015523 | 58 | 285 | 9.0 | 19.0 | 0.00 | 0.00 | 0.00 | 82 | |
| 20260905014531 | 58 | 277 | 8.0 | 16.0 | 0.00 | 0.00 | 0.00 | 84 | |
| 20260905013522 | 57 | 272 | 7.0 | 17.0 | 0.00 | 0.00 | 0.00 | 86 | |
| 20260905012531 | 57 | 282 | 4.0 | 9.0 | 0.00 | 0.00 | 0.00 | 89 | |
| 20260905011543 | 56 | 273 | 6.0 | 13.0 | 0.00 | 0.00 | 0.00 | 91 | |
| 20260905010531 | 56 | 281 | 5.0 | 13.0 | 0.00 | 0.00 | 0.00 | 93 | |
| 20260905005522 | 55 | 282 | 4.0 | 10.0 | 0.00 | 0.00 | 0.00 | 94 | |
| 20260905004531 | 54 | 283 | 5.0 | 13.0 | 0.00 | 0.00 | 0.00 | 93 | |
| 20260905003522 | 54 | 282 | 6.0 | 13.0 | 0.00 | 0.00 | 0.00 | 92 | |
| 20260905002530 | 54 | 279 | 6.0 | 13.0 | 0.00 | 0.00 | 0.00 | 91 | |
| 20260905001542 | 54 | 282 | 6.0 | 10.0 | 0.00 | 0.00 | 0.00 | 92 | |
| 20260905000531 | 54 | 282 | 6.0 | 11.0 | 0.00 | 0.00 | 0.00 | 89 | |
| 20260904235523 | 55 | 271 | 8.0 | 19.0 | 0.00 | 0.00 | 0.00 | 87 | |
| 20260904234530 | 57 | 276 | 6.0 | 14.0 | 0.00 | 0.00 | 0.00 | 80 | |
| 20260904233523 | 55 | 292 | 5.0 | 11.0 | 0.00 | 0.00 | 0.00 | 83 | |
| 20260904232611 | 55 | 276 | 5.0 | 17.0 | 0.00 | 0.00 | 0.00 | 81 | |
| 20260904231523 | 55 | 284 | 9.0 | 19.0 | 0.00 | 0.00 | 0.00 | 79 | |
| 20260904230531 | 54 | 280 | 6.0 | 15.0 | 0.00 | 0.00 | 0.00 | 83 | |
| 20260904225522 | 55 | 291 | 7.0 | 16.0 | 0.00 | 0.00 | 0.00 | 78 | |
| 20260904224551 | 56 | 287 | 8.0 | 16.0 | 0.00 | 0.00 | 0.00 | 73 | |
| 20260904223523 | 55 | 291 | 7.0 | 17.0 | 0.00 | 0.00 | 0.00 | 73 | |
| 20260904222530 | 56 | 275 | 6.0 | 17.0 | 0.00 | 0.00 | 0.00 | 71 | |
| 20260904221522 | 55 | 283 | 6.0 | 11.0 | 0.00 | 0.00 | 0.00 | 71 | |
| 20260904220531 | 55 | 289 | 3.0 | 7.0 | 0.00 | 0.00 | 0.00 | 74 | |
| 20260904215523 | 54 | 284 | 3.0 | 7.0 | 0.00 | 0.00 | 0.00 | 76 | |
| 20260904214530 | 53 | 287 | 2.0 | 5.0 | 0.00 | 0.00 | 0.00 | 78 | |
| 20260904213523 | 53 | 285 | 2.0 | 5.0 | 0.00 | 0.00 | 0.00 | 78 | |
| 20260904212531 | 52 | 281 | 1.0 | 3.0 | 0.00 | 0.00 | 0.00 | 81 | |
| 20260904211523 | 50 | 272 | 1.0 | 3.0 | 0.00 | 0.00 | 0.00 | 84 | |
| 20260904210531 | 49 | 275 | 2.0 | 6.0 | 0.00 | 0.00 | 0.00 | 87 | |
| 20260904205523 | 48 | 275 | 1.0 | 2.0 | 0.00 | 0.00 | 0.00 | 91 | |
| 20260904204531 | 47 | 0.0 | 0.0 | 0.00 | 0.00 | 0.00 | 92 | ||
| 20260904203523 | 47 | 239 | 0.0 | 1.0 | 0.00 | 0.00 | 0.00 | 91 | |
| 20260904202531 | 48 | 242 | 1.0 | 1.0 | 0.00 | 0.00 | 0.00 | 90 | |
| 20260904201523 | 48 | 252 | 1.0 | 2.0 | 0.00 | 0.00 | 0.00 | 87 | |
| 20260904200532 | 49 | 276 | 3.0 | 9.0 | 0.00 | 0.00 | 0.00 | 88 |